createdAt,value
2018-01-02T00:01:03.523Z,4.00
2018-01-02T00:03:30.418Z,4.10
2018-01-02T00:05:57.329Z,4.10
2018-01-02T00:08:24.227Z,4.00
2018-01-02T00:10:51.147Z,4.10
2018-01-02T00:13:18.070Z,4.10
2018-01-02T00:15:44.980Z,4.10
2018-01-02T00:18:12.897Z,4.10
2018-01-02T00:20:39.816Z,4.20
2018-01-02T00:23:06.764Z,4.10
2018-01-02T00:25:34.705Z,4.20
2018-01-02T00:28:02.400Z,4.10
2018-01-02T00:30:29.317Z,4.10
2018-01-02T00:32:56.257Z,4.10
2018-01-02T00:35:23.940Z,4.20
2018-01-02T00:37:50.872Z,4.40
2018-01-02T00:40:17.793Z,4.20
2018-01-02T00:42:45.509Z,4.20
2018-01-02T00:45:12.463Z,4.20
2018-01-02T00:47:39.368Z,4.20
2018-01-02T00:50:07.172Z,4.10
2018-01-02T00:52:34.109Z,4.10
2018-01-02T00:55:02.043Z,4.10
2018-01-02T00:57:29.353Z,4.20
2018-01-02T00:59:56.363Z,4.30
2018-01-02T01:02:23.320Z,4.30
2018-01-02T01:04:50.240Z,4.30
2018-01-02T01:07:17.155Z,4.30
2018-01-02T01:09:44.881Z,4.20
2018-01-02T01:12:11.779Z,4.40
2018-01-02T01:14:38.684Z,4.20
2018-01-02T01:17:05.604Z,4.20
2018-01-02T01:19:32.517Z,4.20
2018-01-02T01:21:59.487Z,4.50
2018-01-02T01:24:26.403Z,4.50
2018-01-02T01:26:53.323Z,4.50
2018-01-02T01:29:20.251Z,4.60
2018-01-02T01:31:47.183Z,4.60
2018-01-02T01:34:14.088Z,4.60
2018-01-02T01:36:40.994Z,4.50
2018-01-02T01:39:07.919Z,4.60
2018-01-02T01:41:34.834Z,4.50
2018-01-02T01:44:01.757Z,4.50
2018-01-02T01:46:28.660Z,4.60
2018-01-02T01:48:55.595Z,4.60
2018-01-02T01:51:22.505Z,4.60
2018-01-02T01:53:49.549Z,4.60
2018-01-02T01:56:16.488Z,4.60
2018-01-02T01:58:43.432Z,4.50
2018-01-02T02:01:11.291Z,4.50
2018-01-02T02:03:38.216Z,4.50
2018-01-02T02:06:05.893Z,4.60
2018-01-02T02:08:32.869Z,4.60
2018-01-02T02:11:00.656Z,4.60
2018-01-02T02:13:27.570Z,4.70
2018-01-02T02:15:54.493Z,4.90
2018-01-02T02:18:21.442Z,4.80
2018-01-02T02:20:48.356Z,4.80
2018-01-02T02:23:15.269Z,4.80
2018-01-02T02:25:42.202Z,5.00
2018-01-02T02:28:09.130Z,4.90
2018-01-02T02:30:36.076Z,4.90
2018-01-02T02:33:03.001Z,4.80
2018-01-02T02:35:29.919Z,4.80
2018-01-02T02:37:56.827Z,4.80
2018-01-02T02:40:23.771Z,4.70
2018-01-02T02:42:50.696Z,4.80
2018-01-02T02:45:17.614Z,4.70
2018-01-02T02:47:45.329Z,4.50
2018-01-02T02:50:13.295Z,4.40
2018-01-02T02:52:40.204Z,4.50
2018-01-02T02:55:07.156Z,4.50
2018-01-02T02:57:34.073Z,4.50
2018-01-02T03:00:01.764Z,4.40
2018-01-02T03:02:28.701Z,4.40
2018-01-02T03:04:56.487Z,4.40
2018-01-02T03:07:23.407Z,4.50
2018-01-02T03:09:50.340Z,4.50
2018-01-02T03:12:18.065Z,4.50
2018-01-02T03:14:44.988Z,4.70
2018-01-02T03:17:11.915Z,4.50
2018-01-02T03:19:38.821Z,4.50
2018-01-02T03:22:05.769Z,4.50
2018-01-02T03:24:32.706Z,4.70
2018-01-02T03:26:59.638Z,4.90
2018-01-02T03:29:26.547Z,4.80
2018-01-02T03:31:53.468Z,5.00
2018-01-02T03:34:20.385Z,5.00
2018-01-02T03:36:47.316Z,5.00
2018-01-02T03:39:15.732Z,5.00
2018-01-02T03:41:43.419Z,5.10
2018-01-02T03:44:10.333Z,5.10
2018-01-02T03:46:38.021Z,5.10
2018-01-02T03:49:04.936Z,5.20
2018-01-02T03:51:31.895Z,5.10
2018-01-02T03:53:58.800Z,5.00
2018-01-02T03:56:25.728Z,5.10
2018-01-02T03:58:52.636Z,5.20
2018-01-02T04:01:19.560Z,5.20
2018-01-02T04:03:47.236Z,5.20
2018-01-02T04:06:14.159Z,5.20
2018-01-02T04:08:41.832Z,5.20
2018-01-02T04:11:08.763Z,5.30
2018-01-02T04:13:36.441Z,5.20
2018-01-02T04:16:04.301Z,5.30
2018-01-02T04:18:32.012Z,5.30
2018-01-02T04:20:58.942Z,5.40
2018-01-02T04:23:25.847Z,5.20
2018-01-02T04:25:53.540Z,5.20
2018-01-02T04:28:20.446Z,5.30
2018-01-02T04:30:48.115Z,5.00
2018-01-02T04:33:15.812Z,5.00
2018-01-02T04:35:42.712Z,5.10
2018-01-02T04:38:11.413Z,5.00
2018-01-02T04:40:39.084Z,5.00
2018-01-02T04:43:05.995Z,5.20
2018-01-02T04:45:32.903Z,5.10
2018-01-02T04:47:59.835Z,5.10
2018-01-02T04:50:26.752Z,5.00
2018-01-02T04:52:53.676Z,5.00
2018-01-02T04:55:20.579Z,4.90
2018-01-02T04:57:47.504Z,4.90
2018-01-02T05:00:14.408Z,5.00
2018-01-02T05:02:41.334Z,5.00
2018-01-02T05:05:08.238Z,5.00
2018-01-02T05:07:35.166Z,5.00
2018-01-02T05:10:02.074Z,5.10
2018-01-02T05:12:29.005Z,5.10
2018-01-02T05:14:55.911Z,5.20
2018-01-02T05:17:23.830Z,5.20
2018-01-02T05:19:51.507Z,5.50
2018-01-02T05:22:18.432Z,5.40
2018-01-02T05:24:45.336Z,5.50
2018-01-02T05:27:12.260Z,5.50
2018-01-02T05:29:39.160Z,5.30
2018-01-02T05:32:06.988Z,5.20
2018-01-02T05:34:33.896Z,5.20
2018-01-02T05:37:00.819Z,5.30
2018-01-02T05:39:27.718Z,5.40
2018-01-02T05:41:54.657Z,5.40
2018-01-02T05:44:21.562Z,5.40
2018-01-02T05:46:48.477Z,5.40
2018-01-02T05:49:15.388Z,5.50
2018-01-02T05:51:42.312Z,5.40
2018-01-02T05:54:09.236Z,5.40
2018-01-02T05:56:36.932Z,5.40
2018-01-02T05:59:03.836Z,5.50
2018-01-02T06:01:30.789Z,5.30
2018-01-02T06:03:57.696Z,5.30
2018-01-02T06:06:24.615Z,5.30
2018-01-02T06:08:51.522Z,5.40
2018-01-02T06:11:18.445Z,5.50
2018-01-02T06:13:45.347Z,5.50
2018-01-02T06:16:12.273Z,5.50
2018-01-02T06:18:39.176Z,5.50
2018-01-02T06:21:06.091Z,5.50
2018-01-02T06:23:33.004Z,5.50
2018-01-02T06:25:59.928Z,5.50
2018-01-02T06:28:26.832Z,5.60
2018-01-02T06:30:53.755Z,5.70
2018-01-02T06:33:20.651Z,5.60
2018-01-02T06:35:47.575Z,5.60
2018-01-02T06:38:14.479Z,5.70
2018-01-02T06:40:41.395Z,5.70
2018-01-02T06:43:09.063Z,5.70
2018-01-02T06:45:36.745Z,5.70
2018-01-02T06:48:03.656Z,5.60
2018-01-02T06:50:30.580Z,5.70
2018-01-02T06:52:58.248Z,5.60
2018-01-02T06:55:25.944Z,5.50
2018-01-02T06:57:52.853Z,5.30
2018-01-02T07:00:20.560Z,5.50
2018-01-02T07:02:47.464Z,5.50
2018-01-02T07:05:15.135Z,5.60
2018-01-02T07:07:42.058Z,5.60
2018-01-02T07:10:08.959Z,5.60
2018-01-02T07:12:35.880Z,5.70
2018-01-02T07:15:02.797Z,5.80
2018-01-02T07:17:30.494Z,5.90
2018-01-02T07:19:57.391Z,5.90
2018-01-02T07:22:25.076Z,5.90
2018-01-02T07:24:52.751Z,5.80
2018-01-02T07:27:19.671Z,5.90
2018-01-02T07:29:47.347Z,5.70
2018-01-02T07:32:14.512Z,5.90
2018-01-02T07:34:41.412Z,5.80
2018-01-02T07:37:09.133Z,5.80
2018-01-02T07:39:36.079Z,5.80
2018-01-02T07:42:04.037Z,5.80
2018-01-02T07:44:30.947Z,5.80
2018-01-02T07:46:57.875Z,5.90
2018-01-02T07:49:24.780Z,5.90
2018-01-02T07:51:52.656Z,5.90
2018-01-02T07:54:19.565Z,6.00
2018-01-02T07:56:47.255Z,6.00
2018-01-02T07:59:14.160Z,6.00
2018-01-02T08:01:41.084Z,6.00
2018-01-02T08:04:07.987Z,5.80
2018-01-02T08:06:34.907Z,5.80
2018-01-02T08:09:02.587Z,5.80
2018-01-02T08:11:29.508Z,5.80
2018-01-02T08:13:56.420Z,5.90
2018-01-02T08:16:23.344Z,6.00
2018-01-02T08:18:50.253Z,5.90
2018-01-02T08:21:17.962Z,6.00
2018-01-02T08:23:44.876Z,6.00
2018-01-02T08:28:45.028Z,6.00
2018-01-02T08:31:11.966Z,6.00
2018-01-02T08:33:38.880Z,5.90
2018-01-02T08:36:06.571Z,5.80
2018-01-02T08:38:33.481Z,5.70
2018-01-02T08:41:01.234Z,5.80
2018-01-02T08:43:28.913Z,5.80
2018-01-02T08:45:56.801Z,5.90
2018-01-02T08:48:23.742Z,5.80
2018-01-02T08:50:50.712Z,5.80
2018-01-02T08:53:17.620Z,5.80
2018-01-02T08:55:45.336Z,5.80
2018-01-02T08:58:12.261Z,6.00
2018-01-02T09:00:39.196Z,5.90
2018-01-02T09:03:06.104Z,5.90
2018-01-02T09:05:33.816Z,6.00
2018-01-02T09:08:00.748Z,5.90
2018-01-02T09:10:27.691Z,6.10
2018-01-02T09:12:54.595Z,6.00
2018-01-02T09:15:22.263Z,5.90
2018-01-02T09:17:49.948Z,5.80
2018-01-02T09:20:16.855Z,5.80
2018-01-02T09:22:43.797Z,5.80
2018-01-02T09:25:10.695Z,5.90
2018-01-02T09:27:37.622Z,6.10
2018-01-02T09:30:04.545Z,6.30
2018-01-02T09:32:32.235Z,6.40
2018-01-02T09:34:59.145Z,6.30
2018-01-02T09:37:26.064Z,6.30
2018-01-02T09:39:52.968Z,6.30
2018-01-02T09:42:19.892Z,6.30
2018-01-02T09:44:47.577Z,6.50
2018-01-02T09:47:14.502Z,6.50
2018-01-02T09:49:42.188Z,6.60
2018-01-02T09:52:09.105Z,6.60
2018-01-02T09:54:36.017Z,6.50
2018-01-02T09:57:02.957Z,6.50
2018-01-02T09:59:29.862Z,6.50
2018-01-02T10:01:57.753Z,6.50
2018-01-02T10:04:24.677Z,6.40
2018-01-02T10:06:52.405Z,6.40
2018-01-02T10:09:19.332Z,6.60
2018-01-02T10:11:46.305Z,6.50
2018-01-02T10:14:13.212Z,6.60
2018-01-02T10:16:41.028Z,6.60
2018-01-02T10:19:07.953Z,6.50
2018-01-02T10:21:34.888Z,6.50
2018-01-02T10:24:01.816Z,6.60
2018-01-02T10:26:28.717Z,6.50
2018-01-02T10:28:56.410Z,6.50
2018-01-02T10:31:23.326Z,6.40
2018-01-02T10:33:51.045Z,6.50
2018-01-02T10:36:17.953Z,6.30
2018-01-02T10:38:44.892Z,6.50
2018-01-02T10:41:11.813Z,6.60
2018-01-02T10:43:38.744Z,6.60
2018-01-02T10:46:05.644Z,6.50
2018-01-02T10:48:32.568Z,6.30
2018-01-02T10:50:59.467Z,6.40
2018-01-02T10:53:27.174Z,6.60
2018-01-02T10:55:54.170Z,6.50
2018-01-02T10:58:22.029Z,6.70
2018-01-02T11:00:49.701Z,6.80
2018-01-02T11:03:17.427Z,6.90
2018-01-02T11:05:44.356Z,7.10
2018-01-02T11:08:11.284Z,6.90
2018-01-02T11:10:38.193Z,7.00
2018-01-02T11:13:05.133Z,6.90
2018-01-02T11:15:32.070Z,6.90
2018-01-02T11:17:59.012Z,6.90
2018-01-02T11:20:25.913Z,6.90
2018-01-02T11:22:52.843Z,7.00
2018-01-02T11:25:19.766Z,6.90
2018-01-02T11:27:48.629Z,7.00
2018-01-02T11:30:15.539Z,7.10
2018-01-02T11:32:42.567Z,7.20
2018-01-02T11:35:09.483Z,7.10
2018-01-02T11:37:36.408Z,7.30
2018-01-02T11:40:03.325Z,7.20
2018-01-02T11:42:31.045Z,7.20
2018-01-02T11:44:58.955Z,7.10
2018-01-02T11:47:25.891Z,7.20
2018-01-02T11:49:53.784Z,7.30
2018-01-02T11:52:21.491Z,7.00
2018-01-02T11:54:48.435Z,7.00
2018-01-02T11:57:15.347Z,6.90
2018-01-02T11:59:42.266Z,7.00
2018-01-02T12:02:09.944Z,6.90
2018-01-02T12:04:37.632Z,6.90
2018-01-02T12:07:04.562Z,6.70
2018-01-02T12:09:32.430Z,6.90
2018-01-02T12:11:59.342Z,6.80
2018-01-02T12:14:27.033Z,6.70
2018-01-02T12:16:54.075Z,6.90
2018-01-02T12:19:20.997Z,6.80
2018-01-02T12:21:47.908Z,6.80
2018-01-02T12:24:14.841Z,6.90
2018-01-02T12:26:45.550Z,6.90
2018-01-02T12:29:12.496Z,6.70
2018-01-02T12:31:40.336Z,6.70
2018-01-02T12:34:07.260Z,6.60
2018-01-02T12:36:34.172Z,6.50
2018-01-02T12:39:01.091Z,6.50
2018-01-02T12:41:27.991Z,6.50
2018-01-02T12:43:54.921Z,6.60
2018-01-02T12:46:21.846Z,6.60
2018-01-02T12:48:48.771Z,6.60
2018-01-02T12:51:15.696Z,6.60
2018-01-02T12:53:43.384Z,6.80
2018-01-02T12:56:10.292Z,7.00
2018-01-02T12:58:37.976Z,6.80
2018-01-02T13:01:04.904Z,6.70
2018-01-02T13:03:32.595Z,6.50
2018-01-02T13:05:59.501Z,6.80
2018-01-02T13:08:26.417Z,6.60
2018-01-02T13:10:53.324Z,6.60
2018-01-02T13:13:20.293Z,6.50
2018-01-02T13:15:49.646Z,6.60
2018-01-02T13:18:20.416Z,6.50
2018-01-02T13:20:47.357Z,6.60
2018-01-02T13:23:14.272Z,6.80
2018-01-02T13:25:41.972Z,6.70
2018-01-02T13:28:08.871Z,6.70
2018-01-02T13:30:35.800Z,6.70
2018-01-02T13:33:02.712Z,6.80
2018-01-02T13:35:29.640Z,6.90
2018-01-02T13:37:56.597Z,6.90
2018-01-02T13:40:23.516Z,6.60
2018-01-02T13:42:51.368Z,6.60
2018-01-02T13:45:19.100Z,6.70
2018-01-02T13:47:46.011Z,6.80
2018-01-02T13:50:12.927Z,6.70
2018-01-02T13:52:39.866Z,6.60
2018-01-02T13:55:07.589Z,6.60
2018-01-02T13:57:34.512Z,6.60
2018-01-02T14:00:01.444Z,6.60
2018-01-02T14:02:28.352Z,6.40
2018-01-02T14:04:56.047Z,6.40
2018-01-02T14:07:22.951Z,6.40
2018-01-02T14:09:50.661Z,6.30
2018-01-02T14:12:17.568Z,6.30
2018-01-02T14:14:45.268Z,6.30
2018-01-02T14:17:12.195Z,6.20
2018-01-02T14:19:39.120Z,6.20
2018-01-02T14:22:06.787Z,6.10
2018-01-02T14:24:33.725Z,6.10
2018-01-02T14:27:01.437Z,6.00
2018-01-02T14:29:28.417Z,6.00
2018-01-02T14:31:55.301Z,5.90
2018-01-02T14:34:22.240Z,5.90
2018-01-02T14:36:49.159Z,5.90
2018-01-02T14:39:16.857Z,5.80
2018-01-02T14:41:43.802Z,5.90
2018-01-02T14:44:10.771Z,5.70
2018-01-02T14:46:37.690Z,5.70
2018-01-02T14:49:04.608Z,5.60
2018-01-02T14:51:32.294Z,5.60
2018-01-02T14:53:59.227Z,5.60
2018-01-02T14:56:26.164Z,5.60
2018-01-02T14:58:53.862Z,5.80
2018-01-02T15:01:20.789Z,5.90
2018-01-02T15:03:47.760Z,5.70
2018-01-02T15:06:20.036Z,5.70
2018-01-02T15:08:46.977Z,5.60
2018-01-02T15:11:13.925Z,5.50
2018-01-02T15:13:40.856Z,5.50
2018-01-02T15:16:12.106Z,5.50
2018-01-02T15:18:39.087Z,5.50
2018-01-02T15:21:06.271Z,5.50
2018-01-02T15:23:36.708Z,5.40
2018-01-02T15:26:03.643Z,5.40
2018-01-02T15:28:33.832Z,5.20
2018-01-02T15:31:00.755Z,5.20
2018-01-02T15:33:27.670Z,5.10
2018-01-02T15:35:54.657Z,5.20
2018-01-02T15:38:21.536Z,5.20
2018-01-02T15:40:48.486Z,5.30
2018-01-02T15:43:15.433Z,5.30
2018-01-02T15:45:44.269Z,5.40
2018-01-02T15:48:11.217Z,5.50
2018-01-02T15:50:38.128Z,5.50
2018-01-02T15:53:05.076Z,5.70
2018-01-02T15:55:36.373Z,5.70
2018-01-02T15:58:03.329Z,5.80
2018-01-02T16:00:30.596Z,5.90
2018-01-02T16:02:57.547Z,6.00
2018-01-02T16:05:24.457Z,6.00
2018-01-02T16:07:52.158Z,6.00
2018-01-02T16:10:19.069Z,6.10
2018-01-02T16:12:46.038Z,5.80
2018-01-02T16:15:17.173Z,5.80
2018-01-02T16:17:44.108Z,5.70
2018-01-02T16:20:11.944Z,5.70
2018-01-02T16:22:38.896Z,5.80
2018-01-02T16:25:05.804Z,5.90
2018-01-02T16:27:32.772Z,5.90
2018-01-02T16:30:00.439Z,5.90
2018-01-02T16:32:27.408Z,5.90
2018-01-02T16:34:54.384Z,5.90
2018-01-02T16:37:21.307Z,5.90
2018-01-02T16:39:48.235Z,6.10
2018-01-02T16:42:18.888Z,6.10
2018-01-02T16:44:45.825Z,6.10
2018-01-02T16:47:12.770Z,6.10
2018-01-02T16:49:40.465Z,5.80
2018-01-02T16:52:07.461Z,5.90
2018-01-02T16:54:34.460Z,5.70
2018-01-02T16:57:02.440Z,5.70
2018-01-02T16:59:29.391Z,5.70
2018-01-02T17:01:56.312Z,5.70
2018-01-02T17:04:24.050Z,5.70
2018-01-02T17:06:51.021Z,5.90
2018-01-02T17:09:17.932Z,5.60
2018-01-02T17:11:45.852Z,5.70
2018-01-02T17:14:12.788Z,5.70
2018-01-02T17:16:39.844Z,5.70
2018-01-02T17:19:06.801Z,5.80
2018-01-02T17:21:33.801Z,5.80
2018-01-02T17:24:00.765Z,5.80
2018-01-02T17:26:27.677Z,5.80
2018-01-02T17:28:54.628Z,5.80
2018-01-02T17:31:21.545Z,5.80
2018-01-02T17:33:49.316Z,5.70
2018-01-02T17:36:17.001Z,5.70
2018-01-02T17:38:43.948Z,5.70
2018-01-02T17:41:10.871Z,5.70
2018-01-02T17:43:38.589Z,5.70
2018-01-02T17:46:05.540Z,5.60
2018-01-02T17:48:33.493Z,5.80
2018-01-02T17:51:00.485Z,5.70
2018-01-02T17:53:28.171Z,5.70
2018-01-02T17:55:55.121Z,5.80
2018-01-02T17:58:22.060Z,5.60
2018-01-02T18:00:49.051Z,5.60
2018-01-02T18:03:16.004Z,5.60
2018-01-02T18:05:44.011Z,5.50
2018-01-02T18:08:10.933Z,5.40
2018-01-02T18:10:37.889Z,5.50
2018-01-02T18:13:05.744Z,5.60
2018-01-02T18:15:32.737Z,5.50
2018-01-02T18:17:59.664Z,5.50
2018-01-02T18:20:26.686Z,5.30
2018-01-02T18:22:54.362Z,5.20
2018-01-02T18:25:21.334Z,5.40
2018-01-02T18:27:48.292Z,5.10
2018-01-02T18:30:15.238Z,5.10
2018-01-02T18:32:42.192Z,5.00
2018-01-02T18:35:09.101Z,5.00
2018-01-02T18:37:36.008Z,4.90
2018-01-02T18:40:02.971Z,4.90
2018-01-02T18:42:29.880Z,4.90
2018-01-02T18:44:56.819Z,4.90
2018-01-02T18:47:23.784Z,4.90
2018-01-02T18:49:51.963Z,5.00
2018-01-02T18:52:19.732Z,5.20
2018-01-02T18:54:47.660Z,5.10
2018-01-02T18:57:14.591Z,5.20
2018-01-02T18:59:44.217Z,5.30
2018-01-02T19:02:11.128Z,5.20
2018-01-02T19:04:38.664Z,5.40
2018-01-02T19:07:05.582Z,5.40
2018-01-02T19:09:32.538Z,5.30
2018-01-02T19:11:59.489Z,5.30
2018-01-02T19:14:26.428Z,5.40
2018-01-02T19:16:53.335Z,5.40
2018-01-02T19:19:20.287Z,5.40
2018-01-02T19:21:48.110Z,5.30
2018-01-02T19:24:15.042Z,5.40
2018-01-02T19:26:43.912Z,5.50
2018-01-02T19:29:10.852Z,5.40
2018-01-02T19:31:38.523Z,5.40
2018-01-02T19:34:05.468Z,5.60
2018-01-02T19:36:32.408Z,5.50
2018-01-02T19:39:00.110Z,5.50
2018-01-02T19:41:27.795Z,5.50
2018-01-02T19:43:54.735Z,5.70
2018-01-02T19:46:21.660Z,5.50
2018-01-02T19:48:48.600Z,5.40
2018-01-02T19:51:15.559Z,5.40
2018-01-02T19:53:42.481Z,5.30
2018-01-02T19:56:09.401Z,5.40
2018-01-02T19:58:37.089Z,5.40
2018-01-02T20:01:04.029Z,5.50
2018-01-02T20:03:30.955Z,5.30
2018-01-02T20:05:58.837Z,5.30
2018-01-02T20:08:25.778Z,5.30
2018-01-02T20:10:52.706Z,5.30
2018-01-02T20:13:20.375Z,5.30
2018-01-02T20:15:47.303Z,5.20
2018-01-02T20:18:14.975Z,5.30
2018-01-02T20:20:42.664Z,5.20
2018-01-02T20:23:09.588Z,5.10
2018-01-02T20:25:36.508Z,5.20
2018-01-02T20:28:03.408Z,5.20
2018-01-02T20:30:31.259Z,5.30
2018-01-02T20:32:58.208Z,5.20
2018-01-02T20:35:25.177Z,5.30
2018-01-02T20:37:52.099Z,5.20
2018-01-02T20:40:19.093Z,5.10
2018-01-02T20:42:46.972Z,5.10
2018-01-02T20:45:14.694Z,5.10
2018-01-02T20:47:41.604Z,5.20
2018-01-02T20:50:08.524Z,5.20
2018-01-02T20:52:36.228Z,5.10
2018-01-02T20:55:05.099Z,5.20
2018-01-02T20:57:32.002Z,5.10
2018-01-02T20:59:59.908Z,5.10
2018-01-02T21:02:26.860Z,5.10
2018-01-02T21:04:53.767Z,5.10
2018-01-02T21:07:20.700Z,5.20
2018-01-02T21:09:47.616Z,5.20
2018-01-02T21:12:14.544Z,5.20
2018-01-02T21:14:41.444Z,5.10
2018-01-02T21:17:08.385Z,5.20
2018-01-02T21:19:35.309Z,5.20
2018-01-02T21:22:02.239Z,5.20
2018-01-02T21:24:29.160Z,5.20
2018-01-02T21:26:56.085Z,5.20
2018-01-02T21:29:23.760Z,5.20
2018-01-02T21:31:50.711Z,5.20
2018-01-02T21:34:17.621Z,5.20
2018-01-02T21:36:45.322Z,5.20
2018-01-02T21:39:12.245Z,5.30
2018-01-02T21:41:39.940Z,5.10
2018-01-02T21:44:06.873Z,5.20
2018-01-02T21:46:33.865Z,5.20
2018-01-02T21:49:00.794Z,5.10
2018-01-02T21:51:27.723Z,5.10
2018-01-02T21:53:54.674Z,5.00
2018-01-02T21:56:21.581Z,5.10
2018-01-02T21:58:48.478Z,5.10
2018-01-02T22:01:15.411Z,5.10
2018-01-02T22:03:42.309Z,5.20
2018-01-02T22:06:09.996Z,5.10
2018-01-02T22:08:36.901Z,5.40
2018-01-02T22:11:04.589Z,5.10
2018-01-02T22:13:31.497Z,5.30
2018-01-02T22:16:00.415Z,5.00
2018-01-02T22:18:27.319Z,5.10
2018-01-02T22:20:54.252Z,5.10
2018-01-02T22:23:21.163Z,5.00
2018-01-02T22:25:48.084Z,5.00
2018-01-02T22:28:15.004Z,5.00
2018-01-02T22:30:41.932Z,5.10
2018-01-02T22:33:08.856Z,5.40
2018-01-02T22:35:35.780Z,5.40
2018-01-02T22:38:02.692Z,5.40
2018-01-02T22:40:29.612Z,5.20
2018-01-02T22:42:56.523Z,5.20
2018-01-02T22:45:23.508Z,5.10
2018-01-02T22:47:50.589Z,5.10
2018-01-02T22:50:17.511Z,5.10
2018-01-02T22:52:44.423Z,5.10
2018-01-02T22:55:11.352Z,5.10
2018-01-02T22:57:39.176Z,5.10
2018-01-02T23:00:06.117Z,5.00
2018-01-02T23:02:33.033Z,5.00
2018-01-02T23:04:59.952Z,4.90
2018-01-02T23:07:26.871Z,4.90
2018-01-02T23:09:54.774Z,4.90
2018-01-02T23:12:21.701Z,4.80
2018-01-02T23:14:48.621Z,4.80
2018-01-02T23:17:18.225Z,4.80
2018-01-02T23:19:45.916Z,4.90
2018-01-02T23:22:12.824Z,4.90
2018-01-02T23:24:39.768Z,4.80
2018-01-02T23:27:06.703Z,4.90
2018-01-02T23:29:33.608Z,4.90
2018-01-02T23:32:00.532Z,4.90
2018-01-02T23:34:28.357Z,4.80
2018-01-02T23:36:56.044Z,4.90
2018-01-02T23:39:23.158Z,5.00
2018-01-02T23:41:50.101Z,4.90
2018-01-02T23:44:17.012Z,4.90
2018-01-02T23:46:43.932Z,4.90
2018-01-02T23:49:10.852Z,4.90
2018-01-02T23:51:38.547Z,4.90
2018-01-02T23:54:05.451Z,5.00
2018-01-02T23:56:32.385Z,4.90
2018-01-02T23:58:59.307Z,4.90
